Time;durP1;ratioP1;P1;durP2;ratioP2;P2;SDS_P1;SDS_P2;PMS_P1;PMS_P2;Temp;Humidity;BMP_temperature;BMP_pressure;BME280_temperature;BME280_humidity;BME280_pressure;Samples;Min_cycle;Max_cycle;Signal;HPM_P1;HPM_P2
2021/03/28 00:02:19;;;;;;;3.35;3.05;;;;;;;0.79;70.70;94434.84;5048186;28;20028;-47
2021/03/28 00:05:11;;;;;;;3.72;2.60;;;;;;;0.93;69.53;94438.88;5048222;28;20021;-47
2021/03/28 00:07:48;;;;;;;2.83;1.23;;;;;;;0.91;69.72;94424.97;5029339;28;20029;-45
2021/03/28 00:10:39;;;;;;;4.60;2.80;;;;;;;0.69;70.34;94426.00;5042615;28;20028;-48
2021/03/28 00:13:08;;;;;;;0.95;0.95;;;;;;;0.60;70.39;94425.31;5034781;28;20117;-45
2021/03/28 00:15:40;;;;;;;1.98;1.80;;;;;;;0.60;71.05;94434.22;5028031;28;20053;-44
2021/03/28 00:18:15;;;;;;;1.00;1.00;;;;;;;0.62;70.45;94429.06;5026868;28;20426;-47
2021/03/28 00:20:42;;;;;;;5.07;4.70;;;;;;;0.57;70.24;94420.78;5027046;28;20052;-45
2021/03/28 00:23:24;;;;;;;2.53;2.42;;;;;;;0.74;69.12;94435.47;5026826;28;20017;-44
2021/03/28 00:25:56;;;;;;;1.45;1.35;;;;;;;0.57;69.93;94435.13;5027150;28;20055;-45
2021/03/28 00:28:23;;;;;;;8.32;3.13;;;;;;;0.56;69.96;94432.88;5028018;28;20504;-44
2021/03/28 00:30:50;;;;;;;5.43;2.15;;;;;;;0.55;70.29;94436.78;5026706;28;20057;-44
2021/03/28 00:33:21;;;;;;;3.85;2.45;;;;;;;0.59;69.14;94426.50;5026646;28;20042;-52
2021/03/28 00:35:46;;;;;;;6.60;3.90;;;;;;;0.37;69.94;94437.63;5026505;28;20425;-49
2021/03/28 00:38:15;;;;;;;2.25;2.15;;;;;;;0.32;70.73;94435.53;5033133;28;20036;-47
2021/03/28 00:40:42;;;;;;;3.78;3.47;;;;;;;0.15;71.18;94444.50;5035624;28;20025;-46
2021/03/28 00:43:21;;;;;;;1.85;0.90;;;;;;;0.02;71.56;94436.56;5035444;28;20017;-45
2021/03/28 00:45:57;;;;;;;2.70;2.50;;;;;;;-0.06;72.87;94436.09;5036353;28;20025;-47
2021/03/28 00:48:25;;;;;;;2.35;1.95;;;;;;;-0.25;72.42;94436.59;5045225;28;20021;-45
2021/03/28 00:51:17;;;;;;;1.13;1.13;;;;;;;-0.31;72.75;94431.03;5034797;28;20033;-46
2021/03/28 00:53:58;;;;;;;2.88;1.80;;;;;;;-0.17;73.08;94432.34;5031656;28;20022;-48
2021/03/28 00:56:43;;;;;;;1.83;1.73;;;;;;;0.03;73.09;94427.19;5026483;28;20033;-50
2021/03/28 00:59:24;;;;;;;1.33;1.23;;;;;;;0.04;72.65;94433.38;5027415;28;20067;-48
2021/03/28 01:02:05;;;;;;;1.52;1.42;;;;;;;0.17;70.94;94429.25;5027442;28;20075;-48
2021/03/28 01:05:01;;;;;;;2.70;2.55;;;;;;;0.16;71.25;94426.97;5027758;28;20054;-50
2021/03/28 01:07:32;;;;;;;1.70;1.60;;;;;;;0.14;70.95;94430.16;5027498;28;20026;-49
2021/03/28 01:10:16;;;;;;;0.90;0.90;;;;;;;0.31;70.37;94425.88;5027494;28;20029;-48
2021/03/28 01:13:19;;;;;;;1.70;1.60;;;;;;;-0.01;71.44;94430.06;5027401;28;20113;-45
2021/03/28 01:16:09;;;;;;;1.60;1.58;;;;;;;-0.11;71.12;94425.84;5027554;28;20467;-47
2021/03/28 01:18:43;;;;;;;1.00;1.00;;;;;;;-0.32;70.97;94434.19;5027352;28;20025;-47
2021/03/28 01:21:33;;;;;;;1.88;1.77;;;;;;;-0.03;70.60;94435.19;5026027;28;20573;-46
2021/03/28 01:24:05;;;;;;;3.92;2.38;;;;;;;-0.17;71.69;94433.09;5026085;28;20025;-50
2021/03/28 01:26:37;;;;;;;1.02;1.02;;;;;;;-0.06;71.48;94432.63;5027176;28;20081;-46
2021/03/28 01:29:28;;;;;;;1.13;1.13;;;;;;;-0.25;71.06;94423.78;5026034;28;20032;-47
2021/03/28 01:32:01;;;;;;;2.58;2.47;;;;;;;-0.10;70.98;94421.94;5026143;28;20022;-50
2021/03/28 01:34:48;;;;;;;3.08;2.90;;;;;;;-0.15;71.21;94430.69;5025879;28;20025;-47
2021/03/28 01:37:26;;;;;;;1.38;1.27;;;;;;;-0.44;72.00;94425.03;5027240;28;20025;-48
2021/03/28 01:39:59;;;;;;;2.47;2.28;;;;;;;-0.15;71.03;94433.41;5025924;28;20100;-47
2021/03/28 01:42:25;;;;;;;0.88;0.88;;;;;;;-0.28;71.97;94432.81;5025944;28;20029;-49
2021/03/28 01:45:04;;;;;;;3.75;2.35;;;;;;;-0.32;71.86;94434.94;5026989;28;20037;-46
2021/03/28 01:48:11;;;;;;;5.10;1.55;;;;;;;-0.29;72.00;94433.28;5028545;28;20086;-47
2021/03/28 01:51:05;;;;;;;3.20;2.03;;;;;;;-0.40;71.76;94436.47;5035409;28;20108;-49
2021/03/28 01:53:44;;;;;;;4.45;4.10;;;;;;;-0.20;71.72;94436.75;5030234;28;20026;-49
2021/03/28 01:56:18;;;;;;;1.48;1.23;;;;;;;-0.12;71.32;94432.50;5029132;28;20025;-46
2021/03/28 01:59:02;;;;;;;2.10;2.00;;;;;;;-0.37;71.52;94435.53;5030098;28;20049;-47
2021/03/28 02:02:11;;;;;;;2.97;2.78;;;;;;;-0.38;71.31;94436.78;5030173;28;20063;-47
2021/03/28 02:05:11;;;;;;;17.25;1.65;;;;;;;-0.39;71.49;94432.53;5001723;28;20064;-48
2021/03/28 02:07:59;;;;;;;2.55;2.22;;;;;;;-0.47;71.85;94430.59;5030010;28;20033;-46
2021/03/28 02:10:45;;;;;;;3.63;2.95;;;;;;;-0.27;71.15;94428.91;5028954;28;20033;-48
2021/03/28 02:13:20;;;;;;;2.53;2.33;;;;;;;-0.36;70.96;94430.88;5028742;28;20059;-50
2021/03/28 02:16:06;;;;;;;1.42;1.33;;;;;;;-0.43;71.78;94421.09;5029868;28;20498;-49
2021/03/28 02:18:40;;;;;;;2.03;1.98;;;;;;;-0.37;71.47;94426.69;5028722;28;20056;-47
2021/03/28 02:21:11;;;;;;;2.65;2.45;;;;;;;-0.30;71.09;94415.50;5028650;28;20498;-47
2021/03/28 02:23:48;;;;;;;3.92;3.55;;;;;;;-0.21;71.09;94429.03;5028610;28;20018;-47
2021/03/28 02:26:41;;;;;;;4.38;2.47;;;;;;;-0.35;71.19;94425.03;5027970;28;20025;-47
2021/03/28 02:29:15;;;;;;;4.55;3.97;;;;;;;-0.25;71.37;94431.16;5029706;28;20057;-49
2021/03/28 02:31:56;;;;;;;2.22;2.08;;;;;;;-0.38;71.00;94425.91;5028337;28;20043;-46
2021/03/28 02:35:03;;;;;;;1.20;1.17;;;;;;;-0.35;71.51;94429.69;5029465;28;20133;-48
2021/03/28 02:37:42;;;;;;;2.03;1.98;;;;;;;-0.51;72.06;94432.72;5050471;28;20032;-50
2021/03/28 02:40:08;;;;;;;3.13;2.35;;;;;;;-0.66;72.54;94434.53;5030950;28;20573;-44
2021/03/28 02:42:56;;;;;;;9.07;1.05;;;;;;;-0.51;72.23;94440.84;5029463;28;20120;-44
2021/03/28 02:45:28;;;;;;;1.00;0.95;;;;;;;-0.73;72.41;94440.25;5029266;28;20060;-45
2021/03/28 02:48:31;;;;;;;1.63;1.52;;;;;;;-0.40;71.10;94439.19;5028207;28;20025;-48
2021/03/28 02:51:23;;;;;;;2.42;2.28;;;;;;;-0.48;71.42;94437.25;5027811;28;20022;-46
2021/03/28 02:54:01;;;;;;;1.88;1.77;;;;;;;-0.47;71.15;94438.72;5029185;28;20030;-45
2021/03/28 02:56:54;;;;;;;2.97;2.70;;;;;;;-0.53;71.47;94437.84;5029263;28;20029;-46
2021/03/28 02:59:35;;;;;;;1.98;1.35;;;;;;;-0.67;71.42;94450.03;5029045;28;20162;-46
2021/03/28 03:02:19;;;;;;;2.13;1.98;;;;;;;-0.67;70.69;94439.19;5029136;28;20036;-45
2021/03/28 03:05:06;;;;;;;0.65;0.65;;;;;;;-0.88;71.63;94446.28;5028098;28;20029;-46
2021/03/28 03:08:13;;;;;;;1.65;1.65;;;;;;;-0.84;72.23;94451.53;5029066;28;20029;-46
2021/03/28 03:11:04;;;;;;;1.90;1.80;;;;;;;-0.70;71.54;94450.97;5038591;28;20078;-45
2021/03/28 03:14:06;;;;;;;1.77;1.67;;;;;;;-0.83;71.64;94453.06;5029032;28;20026;-46
2021/03/28 03:16:50;;;;;;;2.35;1.83;;;;;;;-0.96;72.17;94453.19;5027719;28;20025;-45
2021/03/28 03:19:45;;;;;;;1.42;1.33;;;;;;;-0.99;72.36;94445.97;5028937;28;20036;-45
2021/03/28 03:22:34;;;;;;;1.02;0.80;;;;;;;-1.02;72.33;94456.97;5028879;28;20080;-45
2021/03/28 03:25:31;;;;;;;1.63;1.52;;;;;;;-0.90;73.20;94456.06;5028943;28;20497;-46
2021/03/28 03:28:14;;;;;;;1.27;1.27;;;;;;;-0.97;72.28;94462.53;5028966;28;20030;-47
2021/03/28 03:31:01;;;;;;;0.60;0.60;;;;;;;-1.11;73.13;94473.19;5028907;28;20048;-45
2021/03/28 03:33:44;;;;;;;3.33;3.17;;;;;;;-1.08;72.70;94475.00;5028797;28;20120;-48
2021/03/28 03:36:31;;;;;;;4.45;4.15;;;;;;;-0.87;71.93;94468.72;5028676;28;20065;-48
2021/03/28 03:39:25;;;;;;;3.50;3.20;;;;;;;-0.74;71.38;94480.19;5028771;28;20114;-48
2021/03/28 03:41:56;;;;;;;2.22;2.13;;;;;;;-1.16;72.89;94474.53;5028659;28;20038;-48
2021/03/28 03:44:38;;;;;;;1.27;1.17;;;;;;;-1.19;73.69;94480.09;5028604;28;20025;-47
2021/03/28 03:47:13;;;;;;;1.52;1.48;;;;;;;-1.19;73.41;94480.84;5027426;28;20422;-48
2021/03/28 03:50:01;;;;;;;2.38;2.22;;;;;;;-1.26;73.14;94480.38;5028486;28;20064;-47
2021/03/28 03:52:54;;;;;;;1.58;1.58;;;;;;;-1.36;73.63;94476.88;5027238;28;20044;-46
2021/03/28 03:55:35;;;;;;;1.48;1.17;;;;;;;-1.27;73.47;94476.16;5028522;28;20516;-48
2021/03/28 03:58:29;;;;;;;1.98;1.88;;;;;;;-1.40;74.16;94483.63;5028194;28;20058;-48
2021/03/28 04:01:02;;;;;;;1.15;1.15;;;;;;;-1.33;73.79;94475.25;5028318;28;20035;-47
2021/03/28 04:03:32;;;;;;;1.05;1.00;;;;;;;-1.37;74.21;94480.06;5027085;28;20414;-46
2021/03/28 04:06:09;;;;;;;1.50;1.40;;;;;;;-1.33;73.90;94480.66;5028448;28;20064;-49
2021/03/28 04:08:58;;;;;;;1.70;1.67;;;;;;;-1.36;73.42;94487.72;5026539;28;20033;-45
2021/03/28 04:11:36;;;;;;;1.80;1.70;;;;;;;-1.25;73.18;94490.75;5028382;28;20032;-48
2021/03/28 04:14:16;;;;;;;2.28;2.17;;;;;;;-1.26;73.10;94493.94;5028117;28;20486;-46
2021/03/28 04:16:45;;;;;;;2.30;2.15;;;;;;;-1.21;73.72;94496.78;5035993;28;20036;-47
2021/03/28 04:19:44;;;;;;;2.10;1.13;;;;;;;-1.20;74.09;94501.03;5046210;28;20072;-50
2021/03/28 04:22:28;;;;;;;0.90;0.90;;;;;;;-1.16;73.30;94506.28;5047777;28;20040;-48
2021/03/28 04:25:07;;;;;;;2.17;2.08;;;;;;;-1.04;73.35;94508.88;5047956;28;20034;-49
2021/03/28 04:28:04;;;;;;;0.80;0.80;;;;;;;-1.21;72.81;94512.31;5046819;28;20081;-48
2021/03/28 04:31:07;;;;;;;3.40;1.92;;;;;;;-1.40;73.08;94511.47;5047705;28;20040;-46
2021/03/28 04:33:41;;;;;;;0.95;0.95;;;;;;;-1.20;72.48;94514.56;5046685;28;20024;-47
2021/03/28 04:36:34;;;;;;;0.75;0.65;;;;;;;-1.35;73.18;94521.75;5047814;28;20661;-49
2021/03/28 04:39:17;;;;;;;2.40;2.30;;;;;;;-1.24;73.09;94524.03;5047760;28;20463;-45
2021/03/28 04:42:16;;;;;;;1.92;1.83;;;;;;;-1.37;73.52;94518.72;5046464;28;20421;-47
2021/03/28 04:45:00;;;;;;;2.00;1.77;;;;;;;-1.09;73.85;94525.00;5047506;28;20025;-50
2021/03/28 04:47:43;;;;;;;1.63;1.40;;;;;;;-0.99;73.26;94521.09;5047504;28;20428;-49
2021/03/28 04:50:45;;;;;;;2.50;2.40;;;;;;;-1.05;72.68;94526.34;5047585;28;20029;-48
2021/03/28 04:53:41;;;;;;;5.85;3.38;;;;;;;-0.97;73.31;94526.81;5047296;28;20033;-46
2021/03/28 04:56:25;;;;;;;2.17;0.82;;;;;;;-0.78;72.00;94542.66;5047099;28;20638;-49
2021/03/28 04:59:08;;;;;;;6.03;2.90;;;;;;;-0.69;71.25;94543.91;5047168;28;20045;-48
2021/03/28 05:01:39;;;;;;;2.30;2.20;;;;;;;-0.51;70.57;94544.69;5047323;28;20033;-47
2021/03/28 05:04:26;;;;;;;1.58;1.48;;;;;;;-0.38;70.30;94545.28;5046132;28;20513;-47
2021/03/28 05:06:55;;;;;;;2.67;2.47;;;;;;;-0.18;69.63;94542.13;5047179;28;20025;-45
2021/03/28 05:09:57;;;;;;;2.38;1.95;;;;;;;-0.02;68.86;94541.81;5047495;28;20044;-46
2021/03/28 05:13:06;;;;;;;3.97;2.58;;;;;;;-0.24;70.75;94546.66;5047436;28;20029;-47
2021/03/28 05:15:58;;;;;;;;;;;;;;;-0.22;71.50;94553.13;5047882;28;20037;-45
2021/03/28 05:18:42;;;;;;;2.35;2.25;;;;;;;-0.16;72.40;94554.03;5062522;28;19909;-47
2021/03/28 05:21:29;;;;;;;2.83;2.67;;;;;;;-0.11;71.88;94547.25;5048129;28;20037;-46
2021/03/28 05:24:16;;;;;;;2.80;2.70;;;;;;;0.00;72.49;94559.16;5050691;28;20107;-47
2021/03/28 05:26:53;;;;;;;2.72;1.73;;;;;;;0.31;71.84;94558.97;5050723;28;20063;-46
2021/03/28 05:30:16;;;;;;;6.80;3.72;;;;;;;0.47;70.68;94560.59;5050785;28;20417;-45
2021/03/28 05:33:03;;;;;;;3.92;3.70;;;;;;;0.73;69.99;94570.66;5071508;28;20035;-45
2021/03/28 05:35:40;;;;;;;2.25;2.15;;;;;;;0.93;70.65;94566.66;5054980;28;20123;-46
2021/03/28 05:38:24;;;;;;;2.97;2.78;;;;;;;1.30;70.09;94568.72;5057041;28;20418;-47
2021/03/28 05:41:04;;;;;;;1.60;1.52;;;;;;;1.64;68.47;94566.72;5050367;28;20090;-45
2021/03/28 05:43:55;;;;;;;0.80;0.80;;;;;;;1.74;69.06;94571.63;5040707;28;20014;-47
2021/03/28 05:46:41;;;;;;;2.05;1.95;;;;;;;1.97;68.04;94578.28;5040642;28;20470;-46
2021/03/28 05:49:28;;;;;;;1.42;1.33;;;;;;;2.61;66.81;94568.31;5040270;28;20421;-47
2021/03/28 05:52:35;;;;;;;2.20;2.10;;;;;;;3.28;64.80;94583.00;5039844;28;20025;-45
2021/03/28 05:55:13;;;;;;;1.60;1.45;;;;;;;3.92;62.96;94569.22;5049137;28;20041;-46
2021/03/28 05:57:57;;;;;;;0.93;0.90;;;;;;;4.43;61.54;94569.31;5039547;28;20047;-48
2021/03/28 06:00:50;;;;;;;2.42;2.28;;;;;;;4.48;60.93;94576.81;5040491;28;20017;-46
2021/03/28 06:03:53;;;;;;;0.90;0.88;;;;;;;4.99;59.97;94578.75;5039663;28;20025;-48
2021/03/28 06:06:27;;;;;;;4.78;3.55;;;;;;;5.34;59.13;94579.28;5039768;28;20029;-46
2021/03/28 06:09:08;;;;;;;2.83;2.50;;;;;;;5.94;57.47;94578.19;5039083;28;20463;-45
2021/03/28 06:11:56;;;;;;;2.17;2.03;;;;;;;6.60;55.71;94580.41;5039113;28;20029;-46
2021/03/28 06:14:32;;;;;;;0.55;0.55;;;;;;;6.98;53.78;94579.72;5040216;28;20030;-46
2021/03/28 06:17:13;;;;;;;2.45;2.17;;;;;;;7.48;52.89;94577.72;5039273;28;20498;-47
2021/03/28 06:20:24;;;;;;;2.05;1.75;;;;;;;8.56;50.30;94583.16;5041368;28;20497;-46
2021/03/28 06:23:08;;;;;;;2.25;1.98;;;;;;;9.64;46.70;94571.13;5070535;28;20027;-46
2021/03/28 06:25:45;;;;;;;8.98;2.33;;;;;;;10.29;46.38;94584.75;5070729;28;20029;-47
2021/03/28 06:28:23;;;;;;;5.68;5.07;;;;;;;10.87;44.07;94573.25;5036589;28;20037;-47
2021/03/28 06:31:13;;;;;;;5.22;4.78;;;;;;;11.56;43.77;94585.00;5029783;28;20502;-46
2021/03/28 06:34:03;;;;;;;8.75;7.93;;;;;;;12.18;42.16;94574.38;5029313;28;20022;-47
2021/03/28 06:36:56;;;;;;;9.85;8.98;;;;;;;12.85;40.02;94576.53;5039142;28;20039;-48
2021/03/28 06:39:59;;;;;;;12.10;5.50;;;;;;;13.24;36.90;94576.44;5029286;28;20058;-46
2021/03/28 06:42:31;;;;;;;5.53;3.13;;;;;;;14.16;36.79;94587.78;5029544;28;20075;-46
2021/03/28 06:45:06;;;;;;;1.13;1.10;;;;;;;14.64;33.96;94579.97;5028424;28;20029;-48
2021/03/28 06:48:16;;;;;;;2.17;1.38;;;;;;;14.72;34.20;94581.50;5029455;28;20428;-46
2021/03/28 06:50:59;;;;;;;1.23;1.13;;;;;;;14.41;33.83;94588.19;5028183;28;20025;-52
2021/03/28 06:53:46;;;;;;;1.98;1.65;;;;;;;13.90;35.47;94592.78;5029513;28;20033;-47
2021/03/28 06:56:48;;;;;;;1.95;0.70;;;;;;;13.46;36.83;94595.34;5029320;28;20029;-46
2021/03/28 06:59:32;;;;;;;1.90;1.80;;;;;;;12.94;38.15;94589.94;5028997;28;20041;-46
2021/03/28 07:02:03;;;;;;;2.05;1.95;;;;;;;13.41;38.88;94593.44;5029221;28;20037;-51
2021/03/28 07:04:50;;;;;;;2.47;2.28;;;;;;;14.71;35.22;94585.56;5029474;28;20086;-51
2021/03/28 07:07:27;;;;;;;3.55;2.15;;;;;;;15.99;33.11;94576.06;5029300;28;20026;-50
2021/03/28 07:09:56;;;;;;;3.28;2.22;;;;;;;17.05;32.12;94584.97;5029180;28;20407;-51
2021/03/28 07:13:03;;;;;;;3.70;2.50;;;;;;;18.07;30.18;94576.38;5029117;28;20064;-49
2021/03/28 07:15:39;;;;;;;4.57;3.78;;;;;;;19.14;29.72;94583.19;5047007;28;20055;-46
2021/03/28 07:18:44;;;;;;;5.72;5.22;;;;;;;20.12;28.37;94584.63;5048941;28;20025;-55
2021/03/28 07:21:24;;;;;;;3.53;2.67;;;;;;;21.23;26.60;94589.44;5047605;28;20033;-50
2021/03/28 07:24:14;;;;;;;4.90;2.63;;;;;;;21.86;24.46;94590.53;5048731;28;20032;-44
2021/03/28 07:26:49;;;;;;;4.20;3.58;;;;;;;21.69;24.48;94589.97;5028309;28;20025;-48
2021/03/28 07:29:20;;;;;;;3.03;2.72;;;;;;;21.08;25.06;94598.91;5027920;28;20041;-47
2021/03/28 07:32:27;;;;;;;4.18;3.83;;;;;;;19.73;27.14;94593.47;5037448;28;20043;-48
2021/03/28 07:35:14;;;;;;;2.58;2.38;;;;;;;19.19;28.64;94593.38;5058166;28;20186;-45
2021/03/28 07:37:42;;;;;;;3.25;2.17;;;;;;;18.36;27.02;94599.06;5040371;28;20052;-47
2021/03/28 07:40:21;;;;;;;3.00;2.77;;;;;;;16.81;29.80;94597.53;5037619;28;20081;-47
2021/03/28 07:43:31;;;;;;;4.50;2.22;;;;;;;18.00;29.06;94589.13;5035885;28;20425;-49
2021/03/28 07:46:19;;;;;;;3.67;3.40;;;;;;;20.18;28.18;94609.59;5035140;28;20048;-43
2021/03/28 07:49:03;;;;;;;4.63;2.65;;;;;;;21.36;26.23;94609.38;5027484;28;20033;-43
2021/03/28 07:51:59;;;;;;;2.47;2.28;;;;;;;22.50;24.91;94604.81;5027273;28;20417;-43
2021/03/28 07:55:02;;;;;;;1.60;1.50;;;;;;;23.76;23.58;94594.81;5042556;28;20512;-48
2021/03/28 07:57:52;;;;;;;3.03;1.73;;;;;;;24.76;21.55;94600.34;5027450;28;20089;-43
2021/03/28 08:00:38;;;;;;;1.70;1.58;;;;;;;25.52;20.83;94606.94;5027322;28;20084;-45
2021/03/28 08:03:32;;;;;;;1.38;1.27;;;;;;;26.26;19.24;94611.13;5027379;28;20048;-46
2021/03/28 08:06:16;;;;;;;2.33;2.13;;;;;;;26.62;18.18;94605.91;5027494;28;20522;-44
2021/03/28 08:08:56;;;;;;;0.95;0.95;;;;;;;26.89;17.52;94611.63;5036723;28;20029;-46
2021/03/28 08:11:28;;;;;;;1.67;1.23;;;;;;;26.98;18.16;94602.19;5046896;28;20032;-46
2021/03/28 08:14:16;;;;;;;4.78;2.60;;;;;;;26.40;16.46;94608.31;5041091;28;20032;-58
2021/03/28 08:17:00;;;;;;;;;;;;;;;25.04;18.07;94612.59;5042448;28;20025;-46
2021/03/28 08:19:44;;;;;;;1.73;1.63;;;;;;;23.55;21.41;94617.44;5030193;28;19921;-46
2021/03/28 08:22:38;;;;;;;2.03;1.58;;;;;;;24.51;19.46;94620.75;5038369;28;20517;-50
2021/03/28 08:25:16;;;;;;;2.53;1.27;;;;;;;24.88;19.35;94620.13;5015169;28;20025;-44
2021/03/28 08:28:00;;;;;;;3.35;2.15;;;;;;;25.65;19.40;94611.94;5035991;28;20106;-44
2021/03/28 08:30:29;;;;;;;2.20;1.63;;;;;;;25.75;19.52;94620.97;5028332;28;20034;-44
2021/03/28 08:32:57;;;;;;;1.65;1.52;;;;;;;26.86;19.06;94619.28;5027039;28;20538;-45
2021/03/28 08:35:37;;;;;;;2.70;1.77;;;;;;;27.60;18.16;94616.69;5029008;28;20082;-44
2021/03/28 08:38:37;;;;;;;2.78;2.10;;;;;;;27.23;17.86;94610.53;5026597;28;20053;-46
2021/03/28 08:41:15;;;;;;;2.53;2.00;;;;;;;27.52;17.95;94619.13;5026942;28;20025;-46
2021/03/28 08:44:05;;;;;;;3.60;2.25;;;;;;;27.94;17.59;94614.75;5039646;28;20567;-44
2021/03/28 08:46:42;;;;;;;2.35;1.67;;;;;;;28.50;17.31;94616.72;5036507;28;20085;-45
2021/03/28 08:49:23;;;;;;;2.10;1.90;;;;;;;28.24;17.63;94618.34;5036517;28;20044;-44
2021/03/28 08:52:04;;;;;;;3.42;2.13;;;;;;;28.79;17.64;94616.63;5036788;28;20021;-43
2021/03/28 08:55:00;;;;;;;2.03;1.70;;;;;;;28.44;17.48;94622.84;5036990;28;20039;-44
2021/03/28 08:57:37;;;;;;;1.38;1.27;;;;;;;28.27;17.65;94620.63;5044057;28;20025;-49
2021/03/28 09:00:16;;;;;;;1.23;1.10;;;;;;;27.79;17.76;94621.13;5041844;28;20501;-46
2021/03/28 09:03:07;;;;;;;1.98;1.80;;;;;;;26.22;19.57;94627.16;5043436;28;20449;-50
2021/03/28 09:05:38;;;;;;;2.40;2.20;;;;;;;24.82;20.30;94620.47;5043346;28;20017;-48
2021/03/28 09:08:20;;;;;;;1.77;1.67;;;;;;;23.47;23.37;94617.66;5046194;28;20056;-48
2021/03/28 09:10:48;;;;;;;3.47;2.15;;;;;;;21.53;25.84;94634.50;5040242;28;20571;-46
2021/03/28 09:13:38;;;;;;;2.25;1.58;;;;;;;20.52;25.95;94628.34;5043756;28;20041;-50
2021/03/28 09:16:19;;;;;;;2.72;2.17;;;;;;;20.81;26.27;94629.16;5042770;28;20056;-44
2021/03/28 09:18:48;;;;;;;2.35;2.20;;;;;;;21.31;27.56;94634.97;5045153;28;20029;-45
2021/03/28 09:21:30;;;;;;;3.95;2.33;;;;;;;22.36;25.26;94629.91;5033479;28;20025;-43
2021/03/28 09:24:24;;;;;;;1.38;1.33;;;;;;;23.70;23.25;94617.75;5041049;28;20046;-47
2021/03/28 09:27:12;;;;;;;3.13;2.42;;;;;;;24.78;22.76;94617.41;5048289;27;20116;-46
2021/03/28 09:29:55;;;;;;;1.67;1.52;;;;;;;25.78;20.77;94616.91;5033484;27;20037;-47
2021/03/28 09:32:36;;;;;;;2.35;1.88;;;;;;;26.15;21.27;94614.75;5032431;28;20033;-44
2021/03/28 09:35:36;;;;;;;4.43;3.08;;;;;;;27.22;18.73;94605.50;5033854;28;20029;-44
2021/03/28 09:38:29;;;;;;;2.63;1.48;;;;;;;27.89;19.33;94604.59;5052807;27;20037;-44
2021/03/28 09:41:10;;;;;;;1.50;1.40;;;;;;;28.23;18.83;94597.72;5052363;27;20107;-43
2021/03/28 09:43:42;;;;;;;2.97;2.15;;;;;;;28.14;18.10;94589.47;5051949;28;20036;-43
2021/03/28 09:46:29;;;;;;;1.80;1.70;;;;;;;28.60;18.15;94585.19;5047238;28;20033;-46
2021/03/28 09:49:09;;;;;;;1.50;1.30;;;;;;;28.82;18.15;94592.63;5048901;28;20040;-44
2021/03/28 09:52:12;;;;;;;3.83;1.98;;;;;;;29.28;16.26;94584.66;5059678;28;20553;-44
2021/03/28 09:54:59;;;;;;;2.35;1.67;;;;;;;28.59;18.76;94595.81;5041884;28;20033;-45
2021/03/28 09:57:46;;;;;;;1.73;1.20;;;;;;;28.54;17.57;94588.50;5042805;28;20044;-46
2021/03/28 10:00:42;;;;;;;0.98;0.88;;;;;;;28.08;18.24;94592.03;5040815;28;20041;-46
2021/03/28 10:03:17;;;;;;;1.35;1.25;;;;;;;28.10;19.07;94583.59;5040694;28;20033;-45
2021/03/28 10:05:44;;;;;;;1.35;1.25;;;;;;;28.19;17.23;94591.88;5037900;28;20021;-43
2021/03/28 10:08:12;;;;;;;2.05;1.25;;;;;;;28.22;18.75;94587.00;5042719;28;20060;-47
2021/03/28 10:11:15;;;;;;;1.75;1.55;;;;;;;28.48;18.64;94586.09;5047250;28;20025;-46
2021/03/28 10:13:51;;;;;;;1.10;1.00;;;;;;;28.93;18.74;94586.00;5039125;28;20133;-45
2021/03/28 10:16:24;;;;;;;1.48;1.38;;;;;;;28.38;18.20;94585.63;5021125;28;20143;-44
2021/03/28 10:19:18;;;;;;;1.05;1.05;;;;;;;28.20;19.12;94584.06;5039194;28;20028;-43
2021/03/28 10:21:53;;;;;;;0.85;0.82;;;;;;;27.86;18.71;94582.41;5054245;28;20021;-44
2021/03/28 10:24:39;;;;;;;1.50;1.40;;;;;;;28.05;19.17;94581.94;5039284;28;20040;-46
2021/03/28 10:27:23;;;;;;;2.00;1.35;;;;;;;28.67;17.83;94581.25;5045641;28;20029;-43
2021/03/28 10:30:13;;;;;;;2.20;1.50;;;;;;;28.59;19.55;94578.78;5048144;28;20021;-43
2021/03/28 10:33:16;;;;;;;3.85;1.98;;;;;;;29.20;17.68;94577.22;5048010;28;20098;-47
2021/03/28 10:35:44;;;;;;;2.17;1.38;;;;;;;29.49;18.50;94572.72;5047410;28;20029;-43
2021/03/28 10:38:25;;;;;;;1.90;1.77;;;;;;;28.84;18.15;94572.81;5047658;28;20527;-44
2021/03/28 10:40:56;;;;;;;2.28;1.27;;;;;;;29.21;17.82;94570.19;5045093;28;20090;-46
2021/03/28 10:43:22;;;;;;;0.73;0.73;;;;;;;28.72;18.58;94580.78;5044159;28;20409;-44
2021/03/28 10:45:56;;;;;;;2.08;1.88;;;;;;;27.75;19.88;94584.78;5047742;28;20029;-46
2021/03/28 10:48:57;;;;;;;1.42;1.20;;;;;;;25.73;20.63;94606.72;5036636;28;20033;-44
2021/03/28 10:52:00;;;;;;;2.13;1.67;;;;;;;24.40;24.00;94618.66;5035745;28;20120;-44
2021/03/28 10:54:43;;;;;;;1.27;1.17;;;;;;;22.52;27.58;94622.53;5028359;28;20021;-43
2021/03/28 10:57:50;;;;;;;3.55;1.27;;;;;;;21.04;31.33;94626.69;5037554;28;20180;-43
2021/03/28 11:00:21;;;;;;;1.58;1.48;;;;;;;19.66;34.66;94639.88;5038608;28;20060;-43
2021/03/28 11:03:04;;;;;;;1.48;1.38;;;;;;;19.23;36.17;94632.16;5036370;28;20086;-43
2021/03/28 11:05:51;;;;;;;1.10;1.10;;;;;;;18.39;34.94;94634.25;5034852;28;20126;-43
2021/03/28 11:08:54;;;;;;;1.85;1.75;;;;;;;18.94;36.19;94631.94;5038628;28;20740;-46
2021/03/28 11:11:47;;;;;;;1.25;1.15;;;;;;;19.03;33.77;94631.28;5039942;28;20021;-45
2021/03/28 11:14:31;;;;;;;1.13;1.13;;;;;;;19.35;33.12;94624.75;5047765;28;20112;-42
2021/03/28 11:17:00;;;;;;;0.90;0.90;;;;;;;19.50;35.59;94619.72;5030215;28;20505;-43
2021/03/28 11:20:03;;;;;;;0.70;0.70;;;;;;;19.21;34.56;94627.13;5046623;28;20047;-44
2021/03/28 11:22:40;;;;;;;2.22;1.73;;;;;;;19.12;34.51;94625.03;5047629;28;20029;-46
2021/03/28 11:25:15;;;;;;;2.15;1.52;;;;;;;18.52;36.50;94617.22;5040033;27;20097;-43
2021/03/28 11:28:13;;;;;;;1.08;1.05;;;;;;;18.44;36.21;94613.72;5030135;28;20395;-47
2021/03/28 11:31:13;;;;;;;0.98;0.98;;;;;;;18.33;36.83;94611.41;5032151;28;20437;-46
2021/03/28 11:33:44;;;;;;;2.20;1.67;;;;;;;18.25;35.75;94610.72;5040823;28;20061;-47
2021/03/28 11:36:17;;;;;;;1.45;1.05;;;;;;;18.16;37.25;94612.84;5040393;28;20029;-47
2021/03/28 11:39:07;;;;;;;1.35;1.02;;;;;;;17.81;36.76;94614.03;5046125;28;20474;-47
2021/03/28 11:41:48;;;;;;;2.60;1.52;;;;;;;17.38;35.97;94603.25;5046769;28;20112;-45
2021/03/28 11:44:19;;;;;;;0.70;0.70;;;;;;;16.96;38.50;94611.44;5046189;28;20075;-46
2021/03/28 11:46:51;;;;;;;4.82;2.13;;;;;;;17.08;38.40;94620.13;5047265;28;20061;-48
2021/03/28 11:49:18;;;;;;;0.95;0.90;;;;;;;16.77;37.76;94599.97;5047492;28;20102;-50
2021/03/28 11:51:52;;;;;;;1.27;1.25;;;;;;;16.38;38.94;94609.66;5046134;28;20031;-48
2021/03/28 11:54:21;;;;;;;1.27;1.17;;;;;;;15.47;40.10;94608.88;5047116;28;20033;-46
2021/03/28 11:56:48;;;;;;;;;;;;;;;15.26;43.20;94613.78;5036712;28;20038;-48
2021/03/28 11:59:19;;;;;;;0.70;0.70;;;;;;;14.53;44.19;94605.31;5027932;28;19917;-47
2021/03/28 12:02:03;;;;;;;1.02;1.02;;;;;;;14.28;46.42;94610.47;5035784;28;20039;-45
2021/03/28 12:04:44;;;;;;;1.05;1.05;;;;;;;14.02;46.71;94600.28;5034203;28;20033;-45
2021/03/28 12:07:28;;;;;;;0.65;0.65;;;;;;;13.43;48.00;94595.69;5036620;28;20437;-47
2021/03/28 12:09:59;;;;;;;0.30;0.30;;;;;;;13.59;50.97;94600.84;5037592;28;20026;-44
2021/03/28 12:12:40;;;;;;;1.85;1.75;;;;;;;13.73;51.30;94598.72;5036163;28;20075;-47
2021/03/28 12:15:42;;;;;;;1.55;1.45;;;;;;;13.38;54.56;94605.63;5036905;28;20053;-45
2021/03/28 12:18:23;;;;;;;4.60;2.38;;;;;;;13.73;56.02;94598.72;5039481;28;20480;-46
2021/03/28 12:20:58;;;;;;;1.92;1.80;;;;;;;13.88;53.07;94590.53;5046684;28;20035;-49
2021/03/28 12:23:26;;;;;;;4.15;3.80;;;;;;;14.47;51.55;94585.25;5046523;28;20102;-47
2021/03/28 12:26:21;;;;;;;4.45;3.58;;;;;;;15.14;46.89;94587.59;5038271;28;20489;-50
2021/03/28 12:28:49;;;;;;;4.40;4.00;;;;;;;15.66;46.02;94580.69;5035750;28;20041;-48
2021/03/28 12:31:27;;;;;;;1.65;1.55;;;;;;;16.11;46.94;94572.38;5044310;28;20116;-48
2021/03/28 12:34:29;;;;;;;1.55;1.45;;;;;;;16.65;43.06;94571.00;5033194;28;20513;-49
2021/03/28 12:37:02;;;;;;;1.90;1.15;;;;;;;16.64;40.86;94567.47;5026829;28;20571;-48
2021/03/28 12:39:58;;;;;;;1.42;1.33;;;;;;;16.84;42.81;94571.31;5030222;28;20068;-46
2021/03/28 12:42:45;;;;;;;0.90;0.43;;;;;;;17.35;39.55;94559.72;5044459;28;20044;-46
2021/03/28 12:45:11;;;;;;;1.45;1.35;;;;;;;17.54;40.69;94567.66;5045386;28;20059;-47
2021/03/28 12:47:57;;;;;;;1.98;1.88;;;;;;;17.69;41.73;94559.94;5035716;28;20057;-46
2021/03/28 12:50:33;;;;;;;1.63;1.30;;;;;;;17.90;42.47;94554.75;5031072;28;20528;-46
2021/03/28 12:53:01;;;;;;;3.38;3.08;;;;;;;18.01;41.88;94551.47;5040889;28;20027;-47
2021/03/28 12:55:30;;;;;;;2.00;1.90;;;;;;;18.11;40.42;94543.19;5045976;28;20107;-47